Time;durP1;ratioP1;P1;durP2;ratioP2;P2;SDS_P1;SDS_P2;PMS_P1;PMS_P2;Temp;Humidity;BMP_temperature;BMP_pressure;BME280_temperature;BME280_humidity;BME280_pressure;Samples;Min_cycle;Max_cycle;Signal;HPM_P1;HPM_P2
2022/08/17 04:02:35;;;;;;;;;;;;;;;20.09;59.45;98286.50;2602212;46;20093;-64
2022/08/17 04:05:04;;;;;;;;;;;;;;;20.16;59.35;98280.84;2621056;54;19938;-64
2022/08/17 04:07:34;;;;;;;;;;;;;;;20.14;58.63;98289.19;2621028;54;19939;-64
2022/08/17 04:10:03;;;;;;;;;;;;;;;20.13;58.63;98284.91;2621260;54;19953;-65
2022/08/17 04:12:43;;;;;;;;;;;;;;;20.15;58.59;98287.31;2623824;54;19950;-65
2022/08/17 04:15:14;;;;;;;;;;;;;;;20.12;58.77;98291.31;2624184;54;19965;-63
2022/08/17 04:17:46;;;;;;;;;;;;;;;20.12;58.73;98287.84;2622414;47;19946;-65
2022/08/17 04:20:16;;;;;;;;;;;;;;;20.12;58.65;98290.53;2623502;47;20508;-64
2022/08/17 04:22:57;;;;;;;;;;;;;;;20.08;58.61;98276.81;2623298;54;19947;-64
2022/08/17 04:25:26;;;;;;;;;;;;;;;19.98;58.56;98277.63;2618922;54;19938;-63
2022/08/17 04:27:56;;;;;;;;;;;;;;;19.79;59.01;98277.31;2617700;54;19947;-64
2022/08/17 04:30:26;;;;;;;;;;;;;;;19.74;59.43;98280.00;2618634;54;19962;-64
2022/08/17 04:32:59;;;;;;;;;;;;;;;19.78;59.50;98273.03;2618097;46;19946;-64
2022/08/17 04:35:36;;;;;;;;;;;;;;;19.84;59.11;98275.72;2620734;54;19938;-64
2022/08/17 04:38:06;;;;;;;;;;;;;;;19.87;59.29;98275.19;2621501;54;19946;-65
2022/08/17 04:43:20;;;;;;;;;;;;;;;19.89;59.40;98281.13;2620136;54;20466;-66
2022/08/17 04:45:50;;;;;;;;;;;;;;;19.94;59.60;98275.75;2620662;47;19995;-65
2022/08/17 04:48:28;;;;;;;;;;;;;;;19.98;59.24;98274.94;2621574;47;19954;-64
2022/08/17 04:51:08;;;;;;;;;;;;;;;20.01;59.43;98279.00;2624320;54;19986;-64
2022/08/17 04:53:38;;;;;;;;;;;;;;;20.03;58.88;98274.16;2622554;47;19950;-63
2022/08/17 04:56:08;;;;;;;;;;;;;;;20.01;59.19;98260.22;2620960;46;19943;-65
2022/08/17 04:58:44;;;;;;;;;;;;;;;19.95;59.23;98248.66;2623652;54;20049;-63
2022/08/17 05:01:14;;;;;;;;;;;;;;;19.89;59.91;98257.78;2619513;47;19946;-64
2022/08/17 05:03:46;;;;;;;;;;;;;;;19.97;60.02;98269.88;2623726;54;19966;-64
2022/08/17 05:06:15;;;;;;;;;;;;;;;20.07;59.41;98272.53;2624961;54;19946;-64
2022/08/17 05:08:44;;;;;;;;;;;;;;;20.08;59.36;98279.50;2624670;54;19958;-67
2022/08/17 05:11:14;;;;;;;;;;;;;;;20.17;59.27;98277.94;2625519;54;19939;-67
2022/08/17 05:13:43;;;;;;;;;;;;;;;20.18;58.82;98273.38;2630183;39;20346;-65
2022/08/17 05:16:13;;;;;;;;;;;;;;;20.23;58.79;98287.59;2625679;54;19947;-64
2022/08/17 05:18:45;;;;;;;;;;;;;;;20.27;59.17;98280.59;2624199;54;19973;-64
2022/08/17 05:21:15;;;;;;;;;;;;;;;20.38;58.69;98286.00;2617731;54;19981;-64
2022/08/17 05:23:45;;;;;;;;;;;;;;;20.39;58.24;98280.34;2618131;54;19950;-64
2022/08/17 05:26:24;;;;;;;;;;;;;;;20.46;58.65;98272.03;2626203;54;19939;-64
2022/08/17 05:28:57;;;;;;;;;;;;;;;20.43;58.47;98270.66;2625485;54;19950;-64
2022/08/17 05:31:31;;;;;;;;;;;;;;;20.47;58.03;98257.53;2625921;54;19956;-66
2022/08/17 05:34:03;;;;;;;;;;;;;;;20.35;58.60;98254.31;2628754;39;20331;-65
2022/08/17 05:36:32;;;;;;;;;;;;;;;20.31;58.62;98237.94;2620253;54;19938;-66
2022/08/17 05:39:13;;;;;;;;;;;;;;;20.28;58.42;98228.53;2617918;54;20194;-64
2022/08/17 05:41:46;;;;;;;;;;;;;;;20.30;59.21;98220.22;2618040;54;19996;-64
2022/08/17 05:44:15;;;;;;;;;;;;;;;20.36;58.81;98213.75;2618869;39;20337;-66
2022/08/17 05:46:48;;;;;;;;;;;;;;;20.44;59.57;98217.78;2617955;54;19945;-64
2022/08/17 05:49:24;;;;;;;;;;;;;;;20.60;59.43;98222.09;2618176;54;19966;-63
2022/08/17 05:52:03;;;;;;;;;;;;;;;20.78;59.19;98240.31;2617902;39;20315;-64
2022/08/17 05:54:38;;;;;;;;;;;;;;;20.86;58.95;98236.28;2618339;54;19947;-64
2022/08/17 05:57:15;;;;;;;;;;;;;;;20.92;58.44;98226.31;2618006;54;19938;-65
2022/08/17 05:59:53;;;;;;;;;;;;;;;20.89;59.25;98234.91;2618075;54;19953;-65
2022/08/17 06:02:24;;;;;;;;;;;;;;;20.96;59.04;98246.97;2618459;39;20041;-65
2022/08/17 06:05:06;;;;;;;;;;;;;;;21.06;59.06;98258.75;2617958;54;19945;-65
2022/08/17 06:07:41;;;;;;;;;;;;;;;21.12;58.69;98263.06;2617186;47;19939;-65
2022/08/17 06:10:14;;;;;;;;;;;;;;;21.12;58.45;98257.69;2617906;54;19939;-65
2022/08/17 06:12:49;;;;;;;;;;;;;;;21.17;58.78;98268.41;2617971;54;19946;-66
2022/08/17 06:15:30;;;;;;;;;;;;;;;21.21;58.61;98281.03;2617999;54;20059;-65
2022/08/17 06:18:01;;;;;;;;;;;;;;;21.22;58.67;98277.25;2617840;54;20430;-65
2022/08/17 06:20:37;;;;;;;;;;;;;;;21.25;58.95;98278.59;2618162;54;19945;-65
2022/08/17 06:23:09;;;;;;;;;;;;;;;21.26;58.32;98267.56;2617940;54;19946;-65
2022/08/17 06:25:44;;;;;;;;;;;;;;;21.24;57.81;98263.56;2617980;54;19954;-66
2022/08/17 06:28:15;;;;;;;;;;;;;;;21.18;58.06;98261.94;2618020;54;19946;-64
2022/08/17 06:30:48;;;;;;;;;;;;;;;21.11;58.19;98254.19;2617858;54;19957;-63
2022/08/17 06:33:30;;;;;;;;;;;;;;;21.01;58.23;98264.97;2619907;54;19946;-73
2022/08/17 06:36:06;;;;;;;;;;;;;;;21.01;58.60;98270.34;2620164;54;19957;-64
2022/08/17 06:38:44;;;;;;;;;;;;;;;20.99;58.62;98265.25;2619423;54;19973;-66
2022/08/17 06:41:18;;;;;;;;;;;;;;;20.92;58.88;98256.66;2622934;54;19947;-64
2022/08/17 06:43:52;;;;;;;;;;;;;;;20.97;58.94;98263.91;2624796;54;19953;-66
2022/08/17 06:46:25;;;;;;;;;;;;;;;21.05;59.08;98255.28;2624580;54;19942;-64
2022/08/17 06:49:06;;;;;;;;;;;;;;;21.18;58.76;98260.06;2620758;54;20431;-64
2022/08/17 06:51:40;;;;;;;;;;;;;;;21.26;58.34;98274.81;2617858;54;19994;-65
2022/08/17 06:54:11;;;;;;;;;;;;;;;21.30;58.92;98275.88;2617807;54;19966;-65
2022/08/17 06:56:43;;;;;;;;;;;;;;;21.42;58.48;98281.78;2616934;54;19938;-64
2022/08/17 06:59:26;;;;;;;;;;;;;;;21.55;58.47;98293.81;2617900;54;19938;-65
2022/08/17 07:02:21;;;;;;;;;;;;;;;21.66;58.14;98300.75;2617817;54;19942;-64
2022/08/17 07:05:07;;;;;;;;;;;;;;;21.64;57.76;98296.75;2617814;54;20037;-65
2022/08/17 07:10:23;;;;;;;;;;;;;;;21.69;57.45;98288.66;2618273;39;20338;-65
2022/08/17 07:12:55;;;;;;;;;;;;;;;21.69;57.64;98278.69;2617765;54;19951;-64
2022/08/17 07:15:27;;;;;;;;;;;;;;;21.72;57.47;98288.09;2618009;54;19946;-64
2022/08/17 07:17:58;;;;;;;;;;;;;;;21.73;57.59;98292.38;2616904;47;19947;-64
2022/08/17 07:20:30;;;;;;;;;;;;;;;21.79;57.87;98290.47;2618120;39;20334;-63
2022/08/17 07:23:05;;;;;;;;;;;;;;;21.93;57.75;98294.16;2617561;54;19954;-65
2022/08/17 07:25:34;;;;;;;;;;;;;;;21.95;57.46;98292.78;2617191;47;19946;-65
2022/08/17 07:28:06;;;;;;;;;;;;;;;21.99;57.30;98293.03;2617005;54;20046;-65
2022/08/17 07:30:38;;;;;;;;;;;;;;;22.03;57.00;98272.56;2617038;54;19947;-65
2022/08/17 07:33:18;;;;;;;;;;;;;;;22.21;57.10;98271.91;2617653;54;19953;-65
2022/08/17 07:35:48;;;;;;;;;;;;;;;22.48;56.21;98278.69;2616988;54;19990;-65
2022/08/17 07:38:23;;;;;;;;;;;;;;;22.70;56.26;98281.72;2617406;54;20442;-65
2022/08/17 07:41:03;;;;;;;;;;;;;;;22.83;55.46;98274.06;2617212;47;19939;-65
2022/08/17 07:43:34;;;;;;;;;;;;;;;22.92;55.68;98278.56;2617664;54;19946;-65
2022/08/17 07:48:56;;;;;;;;;;;;;;;22.85;55.23;98286.16;2617664;54;19939;-65
2022/08/17 07:51:27;;;;;;;;;;;;;;;22.82;55.49;98296.69;2617033;54;19957;-64
2022/08/17 07:54:00;;;;;;;;;;;;;;;22.64;55.70;98299.03;2618641;54;19946;-64
2022/08/17 07:56:45;;;;;;;;;;;;;;;22.70;55.74;98284.44;2618297;54;19946;-64
2022/08/17 07:59:16;;;;;;;;;;;;;;;22.77;55.32;98302.94;2617413;54;19946;-64
2022/08/17 08:02:03;;;;;;;;;;;;;;;22.84;54.98;98305.31;2617746;54;20426;-65
2022/08/17 08:04:35;;;;;;;;;;;;;;;22.90;55.05;98286.16;2618231;54;19938;-64
2022/08/17 08:07:28;;;;;;;;;;;;;;;23.01;54.77;98277.94;2618720;31;20441;-64
2022/08/17 08:10:10;;;;;;;;;;;;;;;22.91;54.82;98282.34;2617681;54;19939;-64
2022/08/17 08:12:40;;;;;;;;;;;;;;;23.12;54.85;98298.31;2617660;47;19945;-64
2022/08/17 08:15:14;;;;;;;;;;;;;;;23.26;54.27;98317.28;2617836;47;19946;-65
2022/08/17 08:17:48;;;;;;;;;;;;;;;23.27;53.95;98335.06;2617397;54;19942;-65
2022/08/17 08:20:18;;;;;;;;;;;;;;;23.31;54.11;98334.25;2617832;54;19939;-65
2022/08/17 08:23:14;;;;;;;;;;;;;;;23.46;53.54;98333.25;2618137;54;19950;-65
2022/08/17 08:25:55;;;;;;;;;;;;;;;23.39;53.40;98330.91;2618137;39;20349;-63
2022/08/17 08:28:29;;;;;;;;;;;;;;;23.44;53.96;98330.84;2617637;54;19950;-65
2022/08/17 08:31:05;;;;;;;;;;;;;;;23.46;53.16;98344.03;2618273;54;19977;-64
2022/08/17 08:33:44;;;;;;;;;;;;;;;23.54;53.35;98346.09;2617596;47;19939;-63
2022/08/17 08:36:24;;;;;;;;;;;;;;;23.66;52.77;98343.81;2617465;47;19945;-65
2022/08/17 08:39:19;;;;;;;;;;;;;;;23.53;52.32;98344.50;2618079;39;20361;-65
2022/08/17 08:41:57;;;;;;;;;;;;;;;23.43;53.10;98348.13;2618329;54;19942;-64
2022/08/17 08:44:33;;;;;;;;;;;;;;;23.44;52.99;98355.13;2619031;39;20446;-64
2022/08/17 08:47:31;;;;;;;;;;;;;;;23.50;52.74;98358.56;2617363;47;19962;-63
2022/08/17 08:50:18;;;;;;;;;;;;;;;23.53;52.32;98373.38;2618114;54;19954;-66
2022/08/17 08:53:13;;;;;;;;;;;;;;;23.70;52.13;98381.81;2618106;39;20366;-64
2022/08/17 08:55:49;;;;;;;;;;;;;;;23.79;52.50;98380.09;2618031;39;20331;-65
2022/08/17 08:58:23;;;;;;;;;;;;;;;23.80;51.42;98383.56;2617388;47;19939;-65
2022/08/17 09:01:14;;;;;;;;;;;;;;;23.66;52.34;98378.88;2617571;54;19946;-65
2022/08/17 09:04:02;;;;;;;;;;;;;;;23.69;51.91;98372.13;2617207;54;19946;-65
2022/08/17 09:06:55;;;;;;;;;;;;;;;23.69;51.66;98364.84;2617983;54;19938;-65
2022/08/17 09:09:28;;;;;;;;;;;;;;;23.75;52.08;98372.84;2620478;54;19953;-64
2022/08/17 09:12:03;;;;;;;;;;;;;;;23.88;51.51;98369.44;2624530;54;19976;-64
2022/08/17 09:14:38;;;;;;;;;;;;;;;23.92;51.16;98365.06;2624710;54;19953;-64
2022/08/17 09:17:17;;;;;;;;;;;;;;;23.98;51.54;98366.63;2622107;54;19938;-64
2022/08/17 09:19:49;;;;;;;;;;;;;;;23.95;51.22;98362.59;2618795;54;19953;-64
2022/08/17 09:22:30;;;;;;;;;;;;;;;23.92;51.62;98368.59;2618263;54;19951;-65
2022/08/17 09:24:59;;;;;;;;;;;;;;;;;;2617529;47;19938;-65
2022/08/17 09:27:32;;;;;;;;;;;;;;;24.09;51.29;98368.09;2617814;54;19954;-65
2022/08/17 09:30:06;;;;;;;;;;;;;;;24.29;50.46;98366.19;2617554;54;19945;-64
2022/08/17 09:32:43;;;;;;;;;;;;;;;24.59;50.75;98371.16;2617753;39;20335;-64
2022/08/17 09:35:16;;;;;;;;;;;;;;;24.81;49.76;98375.94;2617720;47;19957;-63
2022/08/17 09:37:54;;;;;;;;;;;;;;;24.92;49.88;98368.47;2617599;54;19947;-64
2022/08/17 09:40:25;;;;;;;;;;;;;;;25.11;49.61;98358.41;2618379;54;19939;-64
2022/08/17 09:42:57;;;;;;;;;;;;;;;25.08;49.03;98363.59;2617772;54;19946;-64
2022/08/17 09:45:39;;;;;;;;;;;;;;;24.94;49.04;98360.84;2617972;39;20361;-65
2022/08/17 09:48:13;;;;;;;;;;;;;;;24.83;49.54;98346.72;2617841;54;19958;-63
2022/08/17 09:50:52;;;;;;;;;;;;;;;24.65;49.66;98345.63;2617570;47;20002;-65
2022/08/17 09:53:35;;;;;;;;;;;;;;;24.57;49.73;98338.22;2617475;54;19938;-63
2022/08/17 09:56:09;;;;;;;;;;;;;;;24.59;49.88;98336.03;2617462;54;19939;-63
2022/08/17 09:58:46;;;;;;;;;;;;;;;24.66;49.42;98349.16;2617686;54;20445;-64
2022/08/17 10:01:27;;;;;;;;;;;;;;;24.77;49.48;98352.50;2617166;54;19974;-64
2022/08/17 10:04:06;;;;;;;;;;;;;;;24.96;49.09;98359.44;2617271;54;20422;-64
2022/08/17 10:06:39;;;;;;;;;;;;;;;25.20;48.95;98359.31;2618348;39;20457;-65
2022/08/17 10:09:14;;;;;;;;;;;;;;;25.38;48.38;98368.44;2617332;47;19946;-65
2022/08/17 10:14:44;;;;;;;;;;;;;;;25.68;47.68;98374.38;2617019;47;19945;-65
2022/08/17 10:17:29;;;;;;;;;;;;;;;25.78;47.50;98373.38;2617041;54;20033;-62
2022/08/17 10:20:04;;;;;;;;;;;;;;;25.78;47.44;98368.78;2617917;54;20442;-63
2022/08/17 10:28:24;;;;;;;;;;;;;;;25.89;47.11;98355.81;2617717;54;20481;-64
2022/08/17 10:31:00;;;;;;;;;;;;;;;25.70;47.16;98372.94;2617310;51;19942;-65
2022/08/17 10:33:59;;;;;;;;;;;;;;;25.91;46.57;98369.84;2617807;54;19977;-64
2022/08/17 10:36:37;;;;;;;;;;;;;;;25.97;46.83;98359.72;2617143;54;20057;-64
2022/08/17 10:39:13;;;;;;;;;;;;;;;25.97;46.70;98354.31;2617122;54;19954;-66
2022/08/17 10:41:45;;;;;;;;;;;;;;;25.91;46.44;98353.59;2618169;54;19954;-66
2022/08/17 10:44:22;;;;;;;;;;;;;;;26.02;46.02;98365.81;2618110;54;19977;-65
2022/08/17 10:47:10;;;;;;;;;;;;;;;26.29;45.69;98372.25;2617578;54;19969;-65
2022/08/17 10:49:48;;;;;;;;;;;;;;;26.40;45.59;98371.72;2617595;54;19977;-65
2022/08/17 10:52:32;;;;;;;;;;;;;;;26.57;45.12;98376.50;2617093;54;19946;-65
2022/08/17 10:55:13;;;;;;;;;;;;;;;26.77;44.49;98369.78;2618295;54;19938;-65
2022/08/17 10:57:44;;;;;;;;;;;;;;;27.02;44.32;98364.81;2617769;54;19939;-64
2022/08/17 11:00:16;;;;;;;;;;;;;;;27.22;44.25;98363.53;2617834;54;20038;-65
2022/08/17 11:02:48;;;;;;;;;;;;;;;27.26;44.10;98365.28;2617231;54;19954;-65
2022/08/17 11:05:31;;;;;;;;;;;;;;;27.30;43.85;98374.41;2618247;54;19938;-65
2022/08/17 11:08:10;;;;;;;;;;;;;;;27.36;43.69;98380.53;2618092;54;19954;-65
2022/08/17 11:10:51;;;;;;;;;;;;;;;27.48;43.68;98375.31;2617576;54;19947;-65
2022/08/17 11:13:26;;;;;;;;;;;;;;;27.64;43.23;98364.81;2617933;54;19951;-63
2022/08/17 11:16:02;;;;;;;;;;;;;;;27.64;43.00;98373.75;2617709;54;19946;-64
2022/08/17 11:18:54;;;;;;;;;;;;;;;27.71;42.37;98373.28;2617690;54;19951;-64
2022/08/17 11:21:37;;;;;;;;;;;;;;;27.73;42.35;98367.56;2617778;54;19946;-63
2022/08/17 11:24:18;;;;;;;;;;;;;;;27.64;42.62;98372.97;2617966;54;19954;-64
2022/08/17 11:27:00;;;;;;;;;;;;;;;27.85;42.35;98363.13;2619482;54;19943;-64
2022/08/17 11:29:32;;;;;;;;;;;;;;;28.06;41.74;98348.94;2619395;54;19939;-64
2022/08/17 11:32:06;;;;;;;;;;;;;;;28.26;41.35;98342.88;2619025;54;19954;-64
2022/08/17 11:34:40;;;;;;;;;;;;;;;28.27;40.94;98346.38;2618666;39;20322;-64
2022/08/17 11:37:29;;;;;;;;;;;;;;;28.53;41.00;98347.19;2618426;54;19946;-67
2022/08/17 11:40:11;;;;;;;;;;;;;;;28.53;39.73;98339.03;2621569;54;19946;-65
2022/08/17 11:42:52;;;;;;;;;;;;;;;28.44;40.13;98335.53;2624667;54;19946;-65
2022/08/17 11:45:36;;;;;;;;;;;;;;;28.44;39.94;98332.81;2618462;54;19938;-65
2022/08/17 11:54:01;;;;;;;;;;;;;;;28.51;40.39;98338.56;2618380;54;20442;-66
2022/08/17 11:56:51;;;;;;;;;;;;;;;28.63;38.58;98344.16;2618316;54;19969;-67
2022/08/17 11:59:38;;;;;;;;;;;;;;;28.72;37.48;98337.91;2618415;54;19974;-66
2022/08/17 12:02:29;;;;;;;;;;;;;;;28.80;36.76;98345.25;2618479;54;19947;-65
2022/08/17 12:05:26;;;;;;;;;;;;;;;28.85;37.09;98337.69;2623722;39;20391;-67
2022/08/17 12:08:02;;;;;;;;;;;;;;;28.94;36.83;98334.16;2623682;47;19947;-65
2022/08/17 12:10:34;;;;;;;;;;;;;;;29.10;37.13;98335.25;2624251;54;19954;-65
2022/08/17 12:13:07;;;;;;;;;;;;;;;29.29;37.43;98332.16;2620317;54;19962;-65
2022/08/17 12:15:38;;;;;;;;;;;;;;;29.51;37.46;98323.69;2619176;47;19945;-67
2022/08/17 12:18:08;;;;;;;;;;;;;;;29.53;37.82;98329.63;2618140;54;19994;-66
2022/08/17 12:20:44;;;;;;;;;;;;;;;29.70;37.74;98325.22;2617773;54;19993;-66
2022/08/17 12:23:18;;;;;;;;;;;;;;;29.73;37.38;98327.31;2617651;47;20054;-66
2022/08/17 12:25:51;;;;;;;;;;;;;;;29.82;37.40;98326.09;2618290;54;19969;-65
2022/08/17 12:28:23;;;;;;;;;;;;;;;29.54;37.66;98320.31;2618067;54;19946;-66
2022/08/17 12:30:53;;;;;;;;;;;;;;;29.32;37.53;98324.13;2618771;54;19975;-66
2022/08/17 12:33:27;;;;;;;;;;;;;;;29.33;38.17;98331.16;2618813;31;20441;-66
2022/08/17 12:36:02;;;;;;;;;;;;;;;29.18;38.24;98328.19;2617618;54;19954;-66
2022/08/17 12:38:33;;;;;;;;;;;;;;;29.21;38.14;98328.31;2617472;47;19957;-65
2022/08/17 12:41:25;;;;;;;;;;;;;;;29.59;37.48;98322.06;2618162;54;19997;-66
2022/08/17 12:44:00;;;;;;;;;;;;;;;29.82;36.47;98319.88;2618001;39;20702;-66
2022/08/17 12:46:32;;;;;;;;;;;;;;;29.89;36.14;98327.53;2617350;54;19958;-66
2022/08/17 12:49:19;;;;;;;;;;;;;;;29.75;35.95;98322.31;2618629;54;19958;-66
2022/08/17 12:51:53;;;;;;;;;;;;;;;29.83;36.07;98314.06;2618136;54;20500;-65
2022/08/17 12:54:30;;;;;;;;;;;;;;;29.84;35.76;98312.13;2617587;54;19954;-65
2022/08/17 12:57:02;;;;;;;;;;;;;;;29.60;36.10;98313.59;2618009;54;20177;-64
2022/08/17 12:59:35;;;;;;;;;;;;;;;29.81;35.51;98299.19;2618551;54;19947;-65
2022/08/17 13:02:11;;;;;;;;;;;;;;;29.98;35.64;98299.06;2618821;39;20332;-64
2022/08/17 13:04:41;;;;;;;;;;;;;;;30.01;35.45;98292.16;2617490;54;19965;-65
2022/08/17 13:07:14;;;;;;;;;;;;;;;29.89;35.57;98276.53;2617674;54;19946;-65
2022/08/17 13:09:51;;;;;;;;;;;;;;;30.01;35.57;98270.38;2618709;54;19957;-65
2022/08/17 13:12:27;;;;;;;;;;;;;;;30.17;35.40;98276.00;2618443;54;20446;-65
2022/08/17 13:14:56;;;;;;;;;;;;;;;30.08;35.07;98265.94;2618945;54;19946;-66
2022/08/17 13:17:30;;;;;;;;;;;;;;;29.98;34.59;98271.81;2619063;54;19965;-65
2022/08/17 13:20:00;;;;;;;;;;;;;;;30.04;34.95;98266.94;2618634;54;19951;-66
2022/08/17 13:22:33;;;;;;;;;;;;;;;30.21;34.85;98261.41;2618920;54;19946;-66
2022/08/17 13:25:08;;;;;;;;;;;;;;;30.31;34.49;98265.63;2618800;47;19998;-65
2022/08/17 13:27:37;;;;;;;;;;;;;;;30.29;34.30;98259.69;2619092;39;20326;-65
2022/08/17 13:30:13;;;;;;;;;;;;;;;30.33;33.81;98258.72;2618701;54;19957;-66
2022/08/17 13:32:45;;;;;;;;;;;;;;;30.35;33.75;98266.53;2618742;39;20306;-66
2022/08/17 13:35:35;;;;;;;;;;;;;;;30.42;33.71;98275.00;2617826;39;20349;-66
2022/08/17 13:38:12;;;;;;;;;;;;;;;30.47;32.98;98272.03;2617941;54;20083;-65
2022/08/17 13:40:44;;;;;;;;;;;;;;;30.59;32.82;98269.34;2618504;54;19954;-66
2022/08/17 13:43:13;;;;;;;;;;;;;;;30.81;32.50;98259.19;2617389;46;19938;-66
2022/08/17 13:45:48;;;;;;;;;;;;;;;30.93;31.72;98250.22;2617341;54;19947;-66
2022/08/17 13:48:27;;;;;;;;;;;;;;;30.82;30.52;98247.94;2617769;54;19946;-65
2022/08/17 13:51:12;;;;;;;;;;;;;;;30.88;31.27;98253.16;2617187;54;20452;-65
2022/08/17 13:53:56;;;;;;;;;;;;;;;31.07;31.23;98245.22;2617245;47;19939;-66
2022/08/17 13:56:29;;;;;;;;;;;;;;;31.16;30.62;98245.91;2617236;47;19986;-65
2022/08/17 13:59:08;;;;;;;;;;;;;;;31.25;30.04;98246.56;2617637;54;19977;-66
2022/08/17 14:01:39;;;;;;;;;;;;;;;30.89;30.96;98241.91;2617979;39;20308;-65
2022/08/17 14:04:10;;;;;;;;;;;;;;;30.66;31.52;98246.16;2617685;54;19946;-66
2022/08/17 14:06:50;;;;;;;;;;;;;;;30.73;31.68;98243.72;2617199;54;19953;-65
2022/08/17 14:09:27;;;;;;;;;;;;;;;30.46;31.26;98239.66;2617886;54;19942;-67
2022/08/17 14:11:58;;;;;;;;;;;;;;;30.39;31.18;98244.88;2618160;54;19951;-66
2022/08/17 14:14:28;;;;;;;;;;;;;;;30.69;30.61;98234.56;2618018;54;19950;-65
2022/08/17 14:16:57;;;;;;;;;;;;;;;30.76;31.16;98223.94;2617749;54;19951;-66
2022/08/17 14:19:27;;;;;;;;;;;;;;;30.89;31.08;98219.28;2620236;54;20010;-65
2022/08/17 14:21:58;;;;;;;;;;;;;;;31.11;31.09;98218.00;2621112;47;19946;-66
2022/08/17 14:24:33;;;;;;;;;;;;;;;31.48;30.35;98211.41;2622297;49;19954;-66
2022/08/17 14:27:04;;;;;;;;;;;;;;;31.50;29.56;98208.34;2622863;54;19942;-66
2022/08/17 14:29:34;;;;;;;;;;;;;;;31.27;28.64;98208.81;2622151;54;19950;-65
2022/08/17 14:32:08;;;;;;;;;;;;;;;31.32;28.92;98203.13;2618719;54;19954;-65
2022/08/17 14:34:37;;;;;;;;;;;;;;;31.30;29.15;98197.22;2623817;47;19958;-65
2022/08/17 14:37:07;;;;;;;;;;;;;;;31.17;28.65;98209.25;2624448;54;19961;-65
2022/08/17 14:39:39;;;;;;;;;;;;;;;31.07;28.19;98210.53;2623159;47;19957;-65
2022/08/17 14:42:10;;;;;;;;;;;;;;;31.01;28.79;98209.16;2622236;54;19946;-65
2022/08/17 14:44:39;;;;;;;;;;;;;;;31.21;28.36;98207.44;2621767;54;19939;-66
2022/08/17 14:47:12;;;;;;;;;;;;;;;31.36;27.91;98207.91;2621507;54;19954;-66
2022/08/17 14:49:42;;;;;;;;;;;;;;;31.42;27.55;98215.50;2623038;39;20338;-67
2022/08/17 14:52:17;;;;;;;;;;;;;;;31.43;27.71;98211.63;2621869;54;20032;-67
2022/08/17 14:54:50;;;;;;;;;;;;;;;31.36;27.37;98202.47;2622151;54;19960;-65
2022/08/17 14:57:19;;;;;;;;;;;;;;;31.50;27.64;98202.88;2620968;54;19939;-66
2022/08/17 15:00:03;;;;;;;;;;;;;;;31.61;27.21;98203.19;2620888;54;20022;-66
2022/08/17 15:02:32;;;;;;;;;;;;;;;31.66;27.49;98198.28;2619526;39;20320;-66
2022/08/17 15:05:02;;;;;;;;;;;;;;;31.64;27.02;98205.22;2617877;54;19966;-66
2022/08/17 15:07:32;;;;;;;;;;;;;;;31.64;26.91;98210.69;2617103;54;19949;-66
2022/08/17 15:10:05;;;;;;;;;;;;;;;31.74;27.39;98205.53;2617656;54;19953;-66
2022/08/17 15:12:34;;;;;;;;;;;;;;;31.82;27.19;98210.06;2618576;54;19939;-66
2022/08/17 15:15:03;;;;;;;;;;;;;;;31.89;27.24;98200.50;2619567;54;20442;-67
2022/08/17 15:17:34;;;;;;;;;;;;;;;31.86;26.79;98193.78;2618722;54;19951;-66
2022/08/17 15:20:15;;;;;;;;;;;;;;;31.77;27.16;98195.84;2619302;39;20361;-66
2022/08/17 15:22:45;;;;;;;;;;;;;;;31.78;27.32;98200.97;2618289;54;19943;-67
2022/08/17 15:25:17;;;;;;;;;;;;;;;31.88;27.64;98198.91;2618205;54;19942;-66
2022/08/17 15:27:47;;;;;;;;;;;;;;;31.80;27.11;98208.81;2617563;54;19946;-66
2022/08/17 15:30:17;;;;;;;;;;;;;;;31.89;27.47;98206.78;2617728;54;19946;-66
2022/08/17 15:32:46;;;;;;;;;;;;;;;31.86;26.67;98202.00;2617572;54;19954;-66
2022/08/17 15:35:24;;;;;;;;;;;;;;;31.66;27.40;98208.41;2618036;54;20026;-66
2022/08/17 15:37:56;;;;;;;;;;;;;;;31.69;27.60;98208.50;2617540;54;19947;-66
2022/08/17 15:40:28;;;;;;;;;;;;;;;31.91;27.53;98193.53;2617116;54;19950;-65
2022/08/17 15:43:05;;;;;;;;;;;;;;;32.09;27.03;98194.03;2617977;54;19950;-66
2022/08/17 15:45:34;;;;;;;;;;;;;;;32.02;26.82;98182.91;2617587;54;19939;-66
2022/08/17 15:48:04;;;;;;;;;;;;;;;31.85;27.19;98183.22;2617224;54;19954;-65
2022/08/17 15:50:34;;;;;;;;;;;;;;;31.68;27.53;98186.97;2617659;54;19939;-66
2022/08/17 15:53:03;;;;;;;;;;;;;;;31.45;28.04;98173.88;2617915;39;20326;-66
2022/08/17 15:55:37;;;;;;;;;;;;;;;31.54;27.78;98177.25;2617354;47;19945;-66
2022/08/17 15:58:06;;;;;;;;;;;;;;;31.79;27.63;98171.69;2616898;47;19957;-65
2022/08/17 16:00:36;;;;;;;;;;;;;;;31.90;26.89;98182.97;2617700;54;19951;-66
2022/08/17 16:03:26;;;;;;;;;;;;;;;31.95;27.00;98178.03;2616843;47;19946;-66
2022/08/17 16:06:15;;;;;;;;;;;;;;;31.84;26.97;98174.19;2617250;31;20438;-64
2022/08/17 16:08:45;;;;;;;;;;;;;;;31.72;27.54;98185.97;2618027;39;20466;-66
2022/08/17 16:11:18;;;;;;;;;;;;;;;31.51;27.65;98183.41;2617494;54;19947;-65
2022/08/17 16:13:47;;;;;;;;;;;;;;;31.39;27.72;98191.63;2617411;54;19950;-66
2022/08/17 16:16:24;;;;;;;;;;;;;;;31.44;27.82;98185.94;2617003;54;19946;-64
2022/08/17 16:18:54;;;;;;;;;;;;;;;31.33;27.03;98193.00;2617274;54;19938;-64
2022/08/17 16:21:29;;;;;;;;;;;;;;;31.29;28.12;98192.91;2617449;54;19958;-64
2022/08/17 16:24:11;;;;;;;;;;;;;;;31.38;27.91;98202.91;2618382;54;19950;-65
2022/08/17 16:26:44;;;;;;;;;;;;;;;31.49;28.00;98204.81;2618089;54;19970;-65
2022/08/17 16:29:13;;;;;;;;;;;;;;;31.54;27.93;98210.03;2619624;54;19960;-65
2022/08/17 16:31:43;;;;;;;;;;;;;;;31.64;28.01;98207.94;2619448;54;20418;-65
2022/08/17 16:34:12;;;;;;;;;;;;;;;31.65;28.45;98207.63;2618159;54;20427;-65
2022/08/17 16:36:46;;;;;;;;;;;;;;;31.68;28.12;98222.50;2618034;54;19942;-65
2022/08/17 16:39:24;;;;;;;;;;;;;;;31.58;28.77;98221.84;2618124;54;19954;-65
2022/08/17 16:41:57;;;;;;;;;;;;;;;31.50;29.28;98216.53;2618031;54;19953;-64
2022/08/17 16:44:30;;;;;;;;;;;;;;;31.24;29.91;98214.94;2617996;54;19953;-65
2022/08/17 16:47:00;;;;;;;;;;;;;;;31.06;30.74;98213.59;2618375;39;20394;-65
2022/08/17 16:49:30;;;;;;;;;;;;;;;30.88;31.24;98212.25;2617955;54;19938;-64
2022/08/17 16:52:08;;;;;;;;;;;;;;;30.75;31.71;98200.53;2618088;54;19954;-64
2022/08/17 16:54:39;;;;;;;;;;;;;;;30.57;31.99;98200.69;2618063;54;20485;-64
2022/08/17 16:57:11;;;;;;;;;;;;;;;30.41;32.19;98199.75;2617562;54;19946;-64
2022/08/17 16:59:40;;;;;;;;;;;;;;;30.44;32.25;98209.19;2617909;39;20324;-64
2022/08/17 17:02:16;;;;;;;;;;;;;;;30.40;32.53;98208.28;2618116;54;19945;-64
2022/08/17 17:04:50;;;;;;;;;;;;;;;30.22;32.96;98219.38;2617935;54;20019;-65
2022/08/17 17:07:35;;;;;;;;;;;;;;;30.25;32.76;98213.25;2617800;39;20330;-64
2022/08/17 17:10:06;;;;;;;;;;;;;;;30.21;32.64;98212.34;2618405;39;20025;-64
2022/08/17 17:12:40;;;;;;;;;;;;;;;30.03;33.32;98219.03;2618183;54;19965;-64
2022/08/17 17:15:33;;;;;;;;;;;;;;;29.90;33.52;98215.47;2618453;54;19970;-63
2022/08/17 17:18:04;;;;;;;;;;;;;;;29.82;33.56;98208.16;2623442;47;19946;-64
2022/08/17 17:20:39;;;;;;;;;;;;;;;29.79;33.50;98198.72;2625071;54;19946;-64
2022/08/17 17:23:10;;;;;;;;;;;;;;;29.64;34.16;98199.34;2624400;54;19953;-68
2022/08/17 17:25:45;;;;;;;;;;;;;;;29.61;33.93;98192.63;2624968;54;19950;-63
2022/08/17 17:28:23;;;;;;;;;;;;;;;29.56;33.92;98184.66;2624534;54;19974;-64
2022/08/17 17:30:57;;;;;;;;;;;;;;;29.43;34.61;98188.41;2624896;54;19950;-63
2022/08/17 17:33:33;;;;;;;;;;;;;;;29.38;34.75;98186.69;2624184;54;19954;-64
2022/08/17 17:36:08;;;;;;;;;;;;;;;29.39;34.73;98182.03;2624787;54;19939;-64
2022/08/17 17:38:42;;;;;;;;;;;;;;;29.27;35.67;98190.13;2623308;54;19946;-65
2022/08/17 17:41:14;;;;;;;;;;;;;;;29.20;36.02;98198.03;2619033;39;20357;-64
2022/08/17 17:43:48;;;;;;;;;;;;;;;29.12;36.07;98186.84;2618251;54;19954;-64
2022/08/17 17:46:23;;;;;;;;;;;;;;;29.08;36.05;98193.28;2619103;39;20338;-64
2022/08/17 17:48:57;;;;;;;;;;;;;;;29.04;36.31;98190.44;2618703;54;19942;-63
2022/08/17 17:51:30;;;;;;;;;;;;;;;28.94;36.77;98203.56;2619407;54;19954;-63
2022/08/17 17:54:31;;;;;;;;;;;;;;;28.97;37.08;98197.50;2619851;54;19981;-63